Time;durP1;ratioP1;P1;durP2;ratioP2;P2;SDS_P1;SDS_P2;PMS_P1;PMS_P2;Temp;Humidity;BMP_temperature;BMP_pressure;BME280_temperature;BME280_humidity;BME280_pressure;Samples;Min_cycle;Max_cycle;Signal;HPM_P1;HPM_P2
2022/04/23 00:01:30;;;;;;;8.70;7.68;;;;;;;;;;10410318;28;20046;-78
2022/04/23 00:06:33;;;;;;;10.27;7.90;;;;;;;;;;10400560;28;20025;-80
2022/04/23 00:11:34;;;;;;;8.82;7.85;;;;;;;;;;10392731;28;20119;-78
2022/04/23 00:16:37;;;;;;;8.35;7.05;;;;;;;;;;10421906;28;20136;-78
2022/04/23 00:21:38;;;;;;;9.30;8.27;;;;;;;;;;10400479;28;20085;-82
2022/04/23 00:26:41;;;;;;;9.60;8.02;;;;;;;;;;10353666;28;20497;-78
2022/04/23 00:31:45;;;;;;;9.52;8.02;;;;;;;;;;10376018;28;20053;-83
2022/04/23 00:36:54;;;;;;;9.60;7.95;;;;;;;;;;10400117;28;20460;-78
2022/04/23 00:42:00;;;;;;;8.60;7.65;;;;;;;;;;10364903;28;20334;-78
2022/04/23 00:47:04;;;;;;;8.50;7.25;;;;;;;;;;10368212;28;20081;-81
2022/04/23 00:52:05;;;;;;;9.88;7.90;;;;;;;;;;10377946;28;20057;-80
2022/04/23 00:57:10;;;;;;;11.13;9.40;;;;;;;;;;10358979;28;20060;-79
2022/04/23 01:02:28;;;;;;;10.70;8.35;;;;;;;;;;10360083;28;20041;-81
2022/04/23 01:07:29;;;;;;;10.30;8.60;;;;;;;;;;10364633;28;20060;-79
2022/04/23 01:12:31;;;;;;;8.90;7.35;;;;;;;;;;10341155;28;20142;-78
2022/04/23 01:17:33;;;;;;;10.05;8.23;;;;;;;;;;10329397;28;20108;-78
2022/04/23 01:22:40;;;;;;;10.75;7.82;;;;;;;;;;10364090;28;20121;-82
2022/04/23 01:27:45;;;;;;;11.27;8.55;;;;;;;;;;10327648;28;20160;-78
2022/04/23 01:33:37;;;;;;;9.98;7.35;;;;;;;;;;10299559;28;20054;-78
2022/04/23 01:38:42;;;;;;;11.88;8.82;;;;;;;;;;10293137;28;20057;-79
2022/04/23 01:43:43;;;;;;;9.63;8.07;;;;;;;;;;10328151;28;20046;-79
2022/04/23 01:48:45;;;;;;;10.10;8.38;;;;;;;;;;10322170;28;20560;-81
2022/04/23 01:53:50;;;;;;;10.27;8.90;;;;;;;;;;10331992;28;20126;-80
2022/04/23 01:58:55;;;;;;;9.90;8.18;;;;;;;;;;10307936;28;20046;-79
2022/04/23 02:04:00;;;;;;;10.02;7.28;;;;;;;;;;10319054;28;20054;-79
2022/04/23 02:09:35;;;;;;;9.25;7.95;;;;;;;;;;10364964;28;20050;-81
2022/04/23 02:15:21;;;;;;;9.88;8.02;;;;;;;;;;10366724;28;20046;-78
2022/04/23 02:20:28;;;;;;;11.18;8.00;;;;;;;;;;10345674;28;20050;-81
2022/04/23 02:25:29;;;;;;;9.80;8.05;;;;;;;;;;10328238;28;20105;-80
2022/04/23 02:30:34;;;;;;;11.13;8.43;;;;;;;;;;10323256;28;20077;-81
2022/04/23 02:35:45;;;;;;;10.00;7.55;;;;;;;;;;10330116;28;20051;-81
2022/04/23 02:40:48;;;;;;;9.93;8.43;;;;;;;;;;10318935;28;20165;-80
2022/04/23 02:46:00;;;;;;;9.63;8.13;;;;;;;;;;10328335;28;20066;-79
2022/04/23 02:51:53;;;;;;;10.90;8.13;;;;;;;;;;10351304;28;20053;-80
2022/04/23 02:57:30;;;;;;;12.20;8.27;;;;;;;;;;10348687;28;20805;-80
2022/04/23 03:02:36;;;;;;;11.38;8.55;;;;;;;;;;10377488;28;20054;-80
2022/04/23 03:08:11;;;;;;;12.02;9.40;;;;;;;;;;10322672;28;20643;-80
2022/04/23 03:13:36;;;;;;;13.60;10.23;;;;;;;;;;10374127;28;20054;-79
2022/04/23 03:18:51;;;;;;;12.60;9.75;;;;;;;;;;10366434;28;20041;-78
2022/04/23 03:24:13;;;;;;;13.75;9.88;;;;;;;;;;10384456;28;20478;-78
2022/04/23 03:29:26;;;;;;;12.00;10.05;;;;;;;;;;10370801;28;20038;-78
2022/04/23 03:34:29;;;;;;;12.40;9.88;;;;;;;;;;10427063;28;20132;-78
2022/04/23 03:39:31;;;;;;;13.48;10.35;;;;;;;;;;10402049;28;20045;-77
2022/04/23 03:44:34;;;;;;;12.57;9.87;;;;;;;;;;10398215;28;20109;-78
2022/04/23 03:49:38;;;;;;;16.00;12.07;;;;;;;;;;10413849;28;20045;-77
2022/04/23 03:54:42;;;;;;;14.70;12.23;;;;;;;;;;10428070;28;20041;-80
2022/04/23 03:59:45;;;;;;;15.40;11.30;;;;;;;;;;10420769;28;20056;-80
2022/04/23 04:04:58;;;;;;;15.55;11.50;;;;;;;;;;10398472;28;20049;-79
2022/04/23 04:10:03;;;;;;;18.42;12.63;;;;;;;;;;10421008;28;20061;-79
2022/04/23 04:15:05;;;;;;;17.13;13.07;;;;;;;;;;10336159;28;20446;-80
2022/04/23 04:20:23;;;;;;;21.75;14.63;;;;;;;;;;10391122;28;20042;-80
2022/04/23 04:25:45;;;;;;;;;;;;;;;;;;10336616;28;20042;-79
2022/04/23 04:36:43;;;;;;;22.80;15.85;;;;;;;;;;10339023;28;20137;-80
2022/04/23 04:41:46;;;;;;;23.77;16.13;;;;;;;;;;10378520;28;20107;-77
2022/04/23 04:46:49;;;;;;;24.48;16.30;;;;;;;;;;10372295;28;20358;-77
2022/04/23 04:51:50;;;;;;;26.53;18.23;;;;;;;;;;10398160;28;20068;-78
2022/04/23 04:57:02;;;;;;;26.63;16.92;;;;;;;;;;10395881;28;20077;-78
2022/04/23 05:02:03;;;;;;;24.40;15.93;;;;;;;;;;10386846;28;20597;-80
2022/04/23 05:07:08;;;;;;;26.20;17.58;;;;;;;;;;10383230;28;20257;-80
2022/04/23 05:12:08;;;;;;;27.67;18.38;;;;;;;;;;10376289;28;20068;-79
2022/04/23 05:17:09;;;;;;;22.85;15.90;;;;;;;;;;10374412;28;20042;-78
2022/04/23 05:22:09;;;;;;;26.80;18.50;;;;;;;;;;10373960;28;20041;-79
2022/04/23 05:27:11;;;;;;;25.83;17.10;;;;;;;;;;10352038;28;20046;-78
2022/04/23 05:32:32;;;;;;;21.73;14.75;;;;;;;;;;10359369;28;20057;-82
2022/04/23 05:37:33;;;;;;;26.80;18.70;;;;;;;;;;10365499;28;20967;-81
2022/04/23 05:42:34;;;;;;;22.60;16.08;;;;;;;;;;10359965;28;20132;-79
2022/04/23 05:47:42;;;;;;;26.92;16.95;;;;;;;;;;10357720;28;20045;-79
2022/04/23 05:52:47;;;;;;;25.90;18.55;;;;;;;;;;10352414;28;20049;-79
2022/04/23 05:57:51;;;;;;;27.08;17.45;;;;;;;;;;10366150;28;20204;-79
2022/04/23 06:02:54;;;;;;;25.02;17.65;;;;;;;;;;10316028;28;20046;-79
2022/04/23 06:07:54;;;;;;;26.30;18.70;;;;;;;;;;10366138;28;20123;-82
2022/04/23 06:12:55;;;;;;;25.23;16.63;;;;;;;;;;10368465;28;20188;-82
2022/04/23 06:18:18;;;;;;;25.45;17.30;;;;;;;;;;10361594;28;20281;-81
2022/04/23 06:23:23;;;;;;;24.50;17.65;;;;;;;;;;10377338;28;20042;-80
2022/04/23 06:28:25;;;;;;;23.88;16.95;;;;;;;;;;10359505;28;20017;-81
2022/04/23 06:33:27;;;;;;;22.05;17.05;;;;;;;;;;10380185;28;20104;-79
2022/04/23 06:38:29;;;;;;;22.20;16.23;;;;;;;;;;10396716;28;20034;-79
2022/04/23 06:43:31;;;;;;;20.83;15.03;;;;;;;;;;10406190;28;20076;-78
2022/04/23 06:48:37;;;;;;;20.08;15.48;;;;;;;;;;10376761;28;20384;-79
2022/04/23 06:53:41;;;;;;;21.25;14.93;;;;;;;;;;10370810;28;20056;-81
2022/04/23 06:58:46;;;;;;;20.23;14.75;;;;;;;;;;10381374;28;20117;-82
2022/04/23 07:03:46;;;;;;;;;;;;;;;;;;10423158;28;20042;-78
2022/04/23 07:08:46;;;;;;;17.52;13.40;;;;;;;;;;10380690;28;19956;-77
2022/04/23 07:13:55;;;;;;;16.48;13.57;;;;;;;;;;10385200;28;20069;-77
2022/04/23 07:18:55;;;;;;;;;;;;;;;;;;10381733;28;20057;-77
2022/04/23 07:24:05;;;;;;;18.23;13.73;;;;;;;;;;10395240;28;19924;-79
2022/04/23 07:29:11;;;;;;;17.02;13.55;;;;;;;;;;10366627;28;20089;-76
2022/04/23 07:39:31;;;;;;;18.05;13.48;;;;;;;;;;10400510;28;20042;-78
2022/04/23 07:44:33;;;;;;;20.42;14.23;;;;;;;;;;10345165;28;20425;-76
2022/04/23 07:49:33;;;;;;;18.98;14.63;;;;;;;;;;10401031;28;20046;-77
2022/04/23 07:55:06;;;;;;;17.23;13.00;;;;;;;;;;10345314;28;20073;-76
2022/04/23 08:00:08;;;;;;;19.00;14.55;;;;;;;;;;10405833;28;20046;-76
2022/04/23 08:05:12;;;;;;;18.00;14.35;;;;;;;;;;10350241;28;20129;-77
2022/04/23 08:10:12;;;;;;;18.58;13.95;;;;;;;;;;10351956;28;20043;-76
2022/04/23 08:15:14;;;;;;;19.02;14.23;;;;;;;;;;10384662;28;20069;-78
2022/04/23 08:20:16;;;;;;;23.05;16.73;;;;;;;;;;10418720;28;20134;-77
2022/04/23 08:25:16;;;;;;;23.35;15.75;;;;;;;;;;10403676;28;20034;-77
2022/04/23 08:30:37;;;;;;;23.02;16.55;;;;;;;;;;10423092;28;20050;-77
2022/04/23 08:35:38;;;;;;;22.70;16.38;;;;;;;;;;10373734;28;20054;-76
2022/04/23 08:40:40;;;;;;;31.02;21.70;;;;;;;;;;10347393;28;20189;-76
2022/04/23 08:45:44;;;;;;;32.60;22.75;;;;;;;;;;10350775;28;20056;-76
2022/04/23 08:50:46;;;;;;;31.52;21.98;;;;;;;;;;10380354;28;20408;-75
2022/04/23 08:55:46;;;;;;;34.78;22.70;;;;;;;;;;10340142;28;20074;-77
2022/04/23 09:00:47;;;;;;;33.08;23.70;;;;;;;;;;10345705;28;20053;-76
2022/04/23 09:05:54;;;;;;;30.17;19.85;;;;;;;;;;10358463;28;20038;-77
2022/04/23 09:10:57;;;;;;;30.23;21.15;;;;;;;;;;10346690;28;20058;-76
2022/04/23 09:27:05;;;;;;;27.70;18.27;;;;;;;;;;10337449;28;20046;-78
2022/04/23 09:32:09;;;;;;;25.63;17.48;;;;;;;;;;10288816;28;20080;-79
2022/04/23 09:38:18;;;;;;;25.27;16.90;;;;;;;;;;10358473;28;20037;-78
2022/04/23 09:43:00;;;;;;;24.58;16.55;;;;;;;;;;10332643;28;20489;-76
2022/04/23 09:48:04;;;;;;;22.38;16.42;;;;;;;;;;10297456;28;20050;-78
2022/04/23 09:53:16;;;;;;;21.38;15.07;;;;;;;;;;10352614;28;20089;-76
2022/04/23 09:58:19;;;;;;;21.65;16.10;;;;;;;;;;10296812;28;20826;-78
2022/04/23 10:03:19;;;;;;;24.02;16.88;;;;;;;;;;10312019;28;20052;-77
2022/04/23 10:08:41;;;;;;;21.20;15.70;;;;;;;;;;10319004;28;20042;-77
2022/04/23 10:14:15;;;;;;;;;;;;;;;;;;10379061;28;20065;-77
2022/04/23 10:19:19;;;;;;;17.60;13.63;;;;;;;;;;10383541;28;19913;-83
2022/04/23 10:24:28;;;;;;;18.58;14.40;;;;;;;;;;10377873;28;20050;-76
2022/04/23 10:29:31;;;;;;;17.90;13.18;;;;;;;;;;10373722;28;20520;-77
2022/04/23 10:34:32;;;;;;;15.40;12.18;;;;;;;;;;10373499;28;20049;-78
2022/04/23 10:39:35;;;;;;;16.23;12.52;;;;;;;;;;10375103;28;20112;-78
2022/04/23 10:44:46;;;;;;;13.77;10.95;;;;;;;;;;10344387;28;20057;-79
2022/04/23 10:49:52;;;;;;;16.45;12.95;;;;;;;;;;10364184;28;20065;-78
2022/04/23 11:01:38;;;;;;;18.77;13.10;;;;;;;;;;10325259;28;20045;-77
2022/04/23 11:13:23;;;;;;;15.50;12.52;;;;;;;;;;10289144;28;20162;-83
2022/04/23 11:18:28;;;;;;;15.75;12.25;;;;;;;;;;10370759;28;20054;-79
2022/04/23 11:23:29;;;;;;;15.75;12.10;;;;;;;;;;10348276;28;20050;-79
2022/04/23 11:28:30;;;;;;;18.45;12.77;;;;;;;;;;10330523;28;20370;-78
2022/04/23 11:33:30;;;;;;;16.33;12.47;;;;;;;;;;10345229;28;20520;-78
2022/04/23 11:38:31;;;;;;;16.25;12.35;;;;;;;;;;10342396;28;20282;-79
2022/04/23 11:43:34;;;;;;;;;;;;;;;;;;10331115;28;20062;-76
2022/04/23 11:48:41;;;;;;;16.50;12.70;;;;;;;;;;10334399;28;19969;-79
2022/04/23 11:53:57;;;;;;;16.33;12.98;;;;;;;;;;10327437;28;20282;-80
2022/04/23 11:59:16;;;;;;;15.50;11.68;;;;;;;;;;10316614;28;20054;-78
2022/04/23 12:04:17;;;;;;;16.10;13.05;;;;;;;;;;10307758;28;20126;-79
2022/04/23 12:09:17;;;;;;;17.80;12.80;;;;;;;;;;10307336;28;20050;-78
2022/04/23 12:14:19;;;;;;;16.07;13.20;;;;;;;;;;10350994;28;21199;-78
2022/04/23 12:19:30;;;;;;;15.38;11.43;;;;;;;;;;10323048;28;20174;-77
2022/04/23 12:24:36;;;;;;;16.80;11.37;;;;;;;;;;10330997;28;20097;-78
2022/04/23 12:40:46;;;;;;;16.55;12.30;;;;;;;;;;10325717;28;20050;-79
2022/04/23 12:45:49;;;;;;;13.73;11.45;;;;;;;;;;10327939;28;20054;-81
2022/04/23 12:51:04;;;;;;;13.77;11.30;;;;;;;;;;10296913;28;20062;-78
2022/04/23 12:56:06;;;;;;;12.88;11.32;;;;;;;;;;10319613;28;20037;-77
2022/04/23 13:01:08;;;;;;;13.03;10.80;;;;;;;;;;10334223;28;20054;-78
2022/04/23 13:11:28;;;;;;;15.00;12.65;;;;;;;;;;10338525;28;20081;-79
2022/04/23 13:16:29;;;;;;;13.48;11.65;;;;;;;;;;10340067;28;20049;-79
2022/04/23 13:21:30;;;;;;;13.43;11.77;;;;;;;;;;10321204;28;20050;-79
2022/04/23 13:26:30;;;;;;;14.38;12.10;;;;;;;;;;10348916;28;20042;-82
2022/04/23 13:31:31;;;;;;;14.27;10.82;;;;;;;;;;10344858;28;20133;-79
2022/04/23 13:36:32;;;;;;;16.38;12.30;;;;;;;;;;10335319;28;20049;-79
2022/04/23 13:41:33;;;;;;;15.70;11.55;;;;;;;;;;10308325;28;20046;-78
2022/04/23 13:46:36;;;;;;;14.57;11.33;;;;;;;;;;10338666;28;20046;-79
2022/04/23 13:51:43;;;;;;;13.35;11.43;;;;;;;;;;10339578;28;20046;-81
2022/04/23 13:56:49;;;;;;;13.07;11.27;;;;;;;;;;10328961;28;20073;-79
2022/04/23 14:12:28;;;;;;;11.80;10.45;;;;;;;;;;10337454;28;20141;-79
2022/04/23 14:17:28;;;;;;;11.30;10.07;;;;;;;;;;10339816;28;20474;-80
2022/04/23 14:22:29;;;;;;;11.80;9.43;;;;;;;;;;10318675;28;20118;-81
2022/04/23 14:27:39;;;;;;;12.98;10.70;;;;;;;;;;10358878;28;20064;-80
2022/04/23 14:32:39;;;;;;;12.60;11.23;;;;;;;;;;10449402;28;20057;-78
2022/04/23 14:37:41;;;;;;;11.50;9.45;;;;;;;;;;10465744;28;20049;-79
2022/04/23 14:42:41;;;;;;;11.85;10.00;;;;;;;;;;10399415;28;20080;-79
2022/04/23 14:47:42;;;;;;;11.68;9.90;;;;;;;;;;10434557;28;20082;-80
2022/04/23 14:58:03;;;;;;;12.52;10.20;;;;;;;;;;10334394;28;20298;-79
2022/04/23 15:03:10;;;;;;;10.80;9.25;;;;;;;;;;10316778;28;20053;-79
2022/04/23 15:08:10;;;;;;;10.25;9.15;;;;;;;;;;10329529;28;20058;-79
2022/04/23 15:13:17;;;;;;;10.35;9.30;;;;;;;;;;10321470;28;20065;-79
2022/04/23 15:18:17;;;;;;;9.65;8.30;;;;;;;;;;10354423;28;20074;-80
2022/04/23 15:23:17;;;;;;;10.15;8.65;;;;;;;;;;10344549;28;20097;-82
2022/04/23 15:28:18;;;;;;;11.10;9.10;;;;;;;;;;10316047;28;20050;-79
2022/04/23 15:33:18;;;;;;;11.70;8.98;;;;;;;;;;10309757;28;20077;-83
2022/04/23 15:38:20;;;;;;;10.57;8.50;;;;;;;;;;10348431;28;20102;-79
2022/04/23 15:43:20;;;;;;;11.68;9.77;;;;;;;;;;10354578;28;20054;-80
2022/04/23 15:48:21;;;;;;;9.13;8.20;;;;;;;;;;10354468;28;20050;-80
2022/04/23 15:53:22;;;;;;;10.13;8.93;;;;;;;;;;10333237;28;20067;-79
2022/04/23 15:58:26;;;;;;;10.43;8.80;;;;;;;;;;10355000;28;20105;-79
2022/04/23 16:03:30;;;;;;;10.73;8.60;;;;;;;;;;10354856;28;20045;-79
2022/04/23 16:08:31;;;;;;;9.93;8.90;;;;;;;;;;10346023;28;20054;-80
2022/04/23 16:13:37;;;;;;;11.48;8.52;;;;;;;;;;10355367;28;20108;-79
2022/04/23 16:18:38;;;;;;;9.15;8.25;;;;;;;;;;10367174;28;20391;-81
2022/04/23 16:23:42;;;;;;;9.85;8.80;;;;;;;;;;10314304;28;20065;-82
2022/04/23 16:28:42;;;;;;;9.13;7.90;;;;;;;;;;10340212;28;20057;-84
2022/04/23 16:33:42;;;;;;;10.90;9.10;;;;;;;;;;10349698;28;20077;-79
2022/04/23 16:49:25;;;;;;;10.25;8.95;;;;;;;;;;10348462;28;21044;-81
2022/04/23 16:54:26;;;;;;;9.40;8.37;;;;;;;;;;10362286;28;20092;-80
2022/04/23 16:59:27;;;;;;;9.07;7.93;;;;;;;;;;10333617;28;20056;-79
2022/04/23 17:04:29;;;;;;;8.35;7.45;;;;;;;;;;10309056;28;20057;-80
2022/04/23 17:09:31;;;;;;;8.53;7.60;;;;;;;;;;10340697;28;20139;-78
2022/04/23 17:14:37;;;;;;;8.60;7.40;;;;;;;;;;10337367;28;20049;-79
2022/04/23 17:19:38;;;;;;;9.23;7.93;;;;;;;;;;10324386;28;20047;-81
2022/04/23 17:24:41;;;;;;;8.90;8.02;;;;;;;;;;10316533;28;20042;-81
2022/04/23 17:29:44;;;;;;;8.73;7.93;;;;;;;;;;10330024;28;20078;-79
2022/04/23 17:34:45;;;;;;;10.25;8.38;;;;;;;;;;10332709;28;20054;-79
2022/04/23 17:39:46;;;;;;;8.95;8.05;;;;;;;;;;10324011;28;20054;-82
2022/04/23 17:44:49;;;;;;;10.60;8.27;;;;;;;;;;10296257;28;20062;-78
2022/04/23 17:49:49;;;;;;;9.10;8.03;;;;;;;;;;10329417;28;20402;-79
2022/04/23 17:54:52;;;;;;;8.53;7.73;;;;;;;;;;10342021;28;20030;-79
2022/04/23 18:10:56;;;;;;;9.75;7.43;;;;;;;;;;10358438;28;20090;-79
2022/04/23 18:15:57;;;;;;;10.15;7.90;;;;;;;;;;10326338;28;20050;-79
2022/04/23 18:21:00;;;;;;;8.52;7.63;;;;;;;;;;10353750;28;20046;-81
2022/04/23 18:26:01;;;;;;;8.07;7.32;;;;;;;;;;10326253;28;20413;-78
2022/04/23 18:31:02;;;;;;;9.00;7.57;;;;;;;;;;10361446;28;20135;-80
2022/04/23 18:36:05;;;;;;;8.47;7.50;;;;;;;;;;10334461;28;20060;-81
2022/04/23 18:41:07;;;;;;;8.85;7.40;;;;;;;;;;10336639;28;20050;-80
2022/04/23 18:46:12;;;;;;;8.73;7.40;;;;;;;;;;10332878;28;20033;-79
2022/04/23 18:51:16;;;;;;;9.98;8.90;;;;;;;;;;10358373;28;20046;-81
2022/04/23 18:56:39;;;;;;;8.95;8.02;;;;;;;;;;10318056;28;20046;-80
2022/04/23 19:01:39;;;;;;;9.30;7.30;;;;;;;;;;10361909;28;20064;-80
2022/04/23 19:06:40;;;;;;;9.27;7.93;;;;;;;;;;10346870;28;20035;-81
2022/04/23 19:11:42;;;;;;;9.40;8.18;;;;;;;;;;10337146;28;20051;-81
2022/04/23 19:17:13;;;;;;;8.38;7.32;;;;;;;;;;10353492;28;20107;-77
2022/04/23 19:27:56;;;;;;;9.82;8.25;;;;;;;;;;10326851;28;20053;-79
2022/04/23 19:32:59;;;;;;;8.82;7.93;;;;;;;;;;10336713;28;20065;-78
2022/04/23 19:38:00;;;;;;;8.20;7.15;;;;;;;;;;10361637;28;20128;-78
2022/04/23 19:43:02;;;;;;;9.35;8.18;;;;;;;;;;10349827;28;20061;-79
2022/04/23 19:48:04;;;;;;;8.75;7.75;;;;;;;;;;10307154;28;20074;-80
2022/04/23 19:53:05;;;;;;;10.98;8.75;;;;;;;;;;10337529;28;20141;-79
2022/04/23 19:58:06;;;;;;;11.73;8.60;;;;;;;;;;10337551;28;20504;-79
2022/04/23 20:03:08;;;;;;;8.87;7.80;;;;;;;;;;10334038;28;20062;-79
2022/04/23 20:08:10;;;;;;;8.90;7.97;;;;;;;;;;10330454;28;20501;-81
2022/04/23 20:13:10;;;;;;;9.13;7.93;;;;;;;;;;10363423;28;20114;-79
2022/04/23 20:18:12;;;;;;;10.32;8.63;;;;;;;;;;10340362;28;20074;-82
2022/04/23 20:23:14;;;;;;;9.13;8.13;;;;;;;;;;10350299;28;20046;-80
2022/04/23 20:28:15;;;;;;;9.98;8.48;;;;;;;;;;10357780;28;20162;-79
2022/04/23 20:33:21;;;;;;;10.13;8.32;;;;;;;;;;10332042;28;20077;-81
2022/04/23 20:38:21;;;;;;;8.30;7.38;;;;;;;;;;10353334;28;20627;-79
2022/04/23 20:43:22;;;;;;;9.48;8.40;;;;;;;;;;10330889;28;20053;-79
2022/04/23 20:48:24;;;;;;;9.88;8.30;;;;;;;;;;10348093;28;20050;-81
2022/04/23 20:53:27;;;;;;;9.90;8.35;;;;;;;;;;10350165;28;20054;-78
2022/04/23 20:58:28;;;;;;;10.30;8.13;;;;;;;;;;10332901;28;20053;-80
2022/04/23 21:03:29;;;;;;;9.88;8.80;;;;;;;;;;10306217;28;20543;-81
2022/04/23 21:08:29;;;;;;;11.17;8.33;;;;;;;;;;10323962;28;20110;-84
2022/04/23 21:13:31;;;;;;;9.77;8.40;;;;;;;;;;10337765;28;20291;-81
2022/04/23 21:18:34;;;;;;;9.68;8.20;;;;;;;;;;10333005;28;20049;-80
2022/04/23 21:23:36;;;;;;;9.73;8.50;;;;;;;;;;10296616;28;20130;-79
2022/04/23 21:28:36;;;;;;;9.30;7.93;;;;;;;;;;10326908;28;20057;-79
2022/04/23 21:33:39;;;;;;;9.07;8.18;;;;;;;;;;10335886;28;20085;-79
2022/04/23 21:38:42;;;;;;;8.73;7.13;;;;;;;;;;10337181;28;20050;-78
2022/04/23 21:49:02;;;;;;;9.77;8.20;;;;;;;;;;10339806;28;20045;-79
2022/04/23 21:54:03;;;;;;;10.90;8.73;;;;;;;;;;10304164;28;20054;-79
2022/04/23 21:59:04;;;;;;;9.40;7.75;;;;;;;;;;10350801;28;20121;-79
2022/04/23 22:04:05;;;;;;;11.85;9.88;;;;;;;;;;10325640;28;20053;-79
2022/04/23 22:09:05;;;;;;;9.00;8.02;;;;;;;;;;10348548;28;20512;-78
2022/04/23 22:14:06;;;;;;;10.30;8.40;;;;;;;;;;10347870;28;20054;-79
2022/04/23 22:19:06;;;;;;;9.30;6.97;;;;;;;;;;10326805;28;20274;-80
2022/04/23 22:24:07;;;;;;;12.60;9.52;;;;;;;;;;10331642;28;20501;-78
2022/04/23 22:29:08;;;;;;;11.02;9.02;;;;;;;;;;10329421;28;20128;-80
2022/04/23 22:34:09;;;;;;;9.65;7.82;;;;;;;;;;10344497;28;20145;-78
2022/04/23 22:39:10;;;;;;;9.40;7.95;;;;;;;;;;10330999;28;20054;-79
2022/04/23 22:44:10;;;;;;;9.13;7.75;;;;;;;;;;10332952;28;20466;-78
2022/04/23 22:49:12;;;;;;;8.93;7.63;;;;;;;;;;10311081;28;20498;-80
2022/04/23 22:54:12;;;;;;;9.40;7.32;;;;;;;;;;10332023;28;20114;-80
2022/04/23 22:59:13;;;;;;;8.13;7.10;;;;;;;;;;10341748;28;20122;-78
2022/04/23 23:04:13;;;;;;;11.27;8.52;;;;;;;;;;10323247;28;20156;-78
2022/04/23 23:09:15;;;;;;;9.53;8.07;;;;;;;;;;10352298;28;20042;-79
2022/04/23 23:14:16;;;;;;;10.43;8.55;;;;;;;;;;10362713;28;20300;-79
2022/04/23 23:19:17;;;;;;;10.45;7.68;;;;;;;;;;10345956;28;20049;-79
2022/04/23 23:24:17;;;;;;;10.52;8.63;;;;;;;;;;10381470;28;20122;-79
2022/04/23 23:29:18;;;;;;;11.90;9.27;;;;;;;;;;10375128;28;20042;-78
2022/04/23 23:34:18;;;;;;;9.80;7.88;;;;;;;;;;10327117;28;20038;-79
2022/04/23 23:39:20;;;;;;;11.38;8.93;;;;;;;;;;10366582;28;20042;-78
2022/04/23 23:44:20;;;;;;;11.90;8.80;;;;;;;;;;10386130;28;20095;-79
2022/04/23 23:49:27;;;;;;;10.43;7.85;;;;;;;;;;10371111;28;20356;-79
2022/04/23 23:54:29;;;;;;;10.32;8.15;;;;;;;;;;10357990;28;20069;-78
2022/04/23 23:59:30;;;;;;;10.18;8.45;;;;;;;;;;10382304;28;20057;-78
